Time;durP1;ratioP1;P1;durP2;ratioP2;P2;SDS_P1;SDS_P2;PMS_P1;PMS_P2;Temp;Humidity;BMP_temperature;BMP_pressure;BME280_temperature;BME280_humidity;BME280_pressure;Samples;Min_cycle;Max_cycle;Signal;HPM_P1;HPM_P2
2022/10/04 00:02:32;;;;;;;5.03;2.47;;;15.70;76.60;;;18.49;55.56;102244.72;4917045;29;20246;-59
2022/10/04 00:05:07;;;;;;;4.80;2.87;;;15.70;76.60;;;18.52;55.43;102234.47;4917555;29;20183;-58
2022/10/04 00:07:43;;;;;;;7.10;2.97;;;15.70;76.70;;;18.52;55.26;102223.81;4917363;29;20193;-59
2022/10/04 00:10:20;;;;;;;6.00;3.40;;;15.70;76.40;;;18.41;55.65;102224.28;4917518;29;20201;-59
2022/10/04 00:12:55;;;;;;;5.97;2.63;;;15.70;76.40;;;18.28;55.77;102210.78;4910590;29;20226;-59
2022/10/04 00:15:27;;;;;;;7.93;3.10;;;15.60;76.30;;;18.17;56.17;102213.97;4898617;29;20183;-59
2022/10/04 00:18:19;;;;;;;4.00;3.00;;;15.60;76.50;;;18.06;56.53;102217.97;4898699;29;20513;-60
2022/10/04 00:21:01;;;;;;;4.90;2.87;;;15.50;76.80;;;17.98;56.77;102223.38;4898533;29;20203;-59
2022/10/04 00:23:46;;;;;;;6.20;2.80;;;15.40;76.90;;;17.91;57.05;102225.13;4898111;29;20223;-59
2022/10/04 00:27:04;;;;;;;4.60;2.80;;;15.40;77.30;;;17.89;56.90;102221.00;4879421;29;20328;-59
2022/10/04 00:29:36;;;;;;;3.70;2.70;;;15.30;77.30;;;17.87;57.13;102223.03;4881388;29;20199;-58
2022/10/04 00:32:28;;;;;;;6.70;3.33;;;15.30;77.60;;;17.79;57.39;102220.47;4897614;29;20223;-59
2022/10/04 00:34:56;;;;;;;4.47;2.43;;;15.20;77.70;;;17.79;57.36;102223.13;4898321;29;20210;-58
2022/10/04 00:37:26;;;;;;;4.93;2.53;;;15.20;77.90;;;17.83;57.40;102216.44;4898607;29;20203;-59
2022/10/04 00:40:11;;;;;;;4.90;3.27;;;15.20;78.30;;;17.82;57.31;102212.09;4900029;29;20239;-59
2022/10/04 00:42:56;;;;;;;6.87;2.90;;;15.20;78.40;;;17.80;57.29;102206.16;4898040;29;20231;-58
2022/10/04 00:45:35;;;;;;;7.03;3.30;;;15.20;78.20;;;17.76;57.58;102205.66;4898756;29;20645;-58
2022/10/04 00:48:34;;;;;;;8.73;3.97;;;15.10;78.30;;;17.66;58.04;102204.31;4898016;29;20187;-58
2022/10/04 00:51:13;;;;;;;8.40;3.13;;;15.10;78.50;;;17.61;57.86;102212.88;4899658;29;20182;-59
2022/10/04 00:53:53;;;;;;;4.20;3.00;;;15.00;78.50;;;17.58;57.80;102222.03;4901783;29;20211;-58
2022/10/04 00:56:32;;;;;;;4.40;2.40;;;15.00;78.50;;;17.61;57.98;102217.34;4883094;29;20582;-57
2022/10/04 00:59:34;;;;;;;4.50;3.50;;;15.00;78.60;;;17.57;58.13;102217.72;4882174;29;20203;-59
2022/10/04 01:02:13;;;;;;;5.83;3.60;;;15.00;78.90;;;17.62;57.90;102208.34;4882529;29;20219;-59
2022/10/04 01:04:47;;;;;;;5.30;3.33;;;15.00;78.80;;;17.59;57.96;102210.38;4882963;29;20214;-58
2022/10/04 01:07:24;;;;;;;6.13;2.93;;;14.90;78.80;;;17.58;57.93;102202.56;4882014;29;20195;-57
2022/10/04 01:09:59;;;;;;;7.00;3.27;;;14.90;79.00;;;17.65;58.25;102207.97;4883205;29;20184;-59
2022/10/04 01:12:42;;;;;;;6.70;3.40;;;14.90;79.30;;;17.68;57.90;102196.97;4884937;29;20719;-59
2022/10/04 01:15:22;;;;;;;5.20;3.00;;;14.90;79.20;;;17.67;57.74;102196.13;4901754;29;20199;-57
2022/10/04 01:18:32;;;;;;;5.07;2.97;;;15.00;79.10;;;17.65;58.09;102192.00;4901686;29;20191;-59
2022/10/04 01:21:06;;;;;;;3.53;2.90;;;15.00;79.30;;;17.72;57.85;102182.25;4862053;29;20623;-58
2022/10/04 01:23:42;;;;;;;6.33;3.40;;;15.00;78.90;;;17.70;57.56;102173.63;4862164;29;20602;-57
2022/10/04 01:26:43;;;;;;;5.70;3.53;;;15.00;78.70;;;17.62;57.72;102165.72;4874656;29;20212;-59
2022/10/04 01:29:15;;;;;;;4.23;2.77;;;15.00;78.70;;;17.64;57.83;102164.53;4828238;29;20346;-56
2022/10/04 01:31:46;;;;;;;9.07;3.83;;;15.00;78.90;;;17.61;57.60;102169.44;4842955;29;20225;-56
2022/10/04 01:34:17;;;;;;;6.57;4.00;;;14.90;78.70;;;17.52;57.87;102166.00;4863784;29;20224;-56
2022/10/04 01:36:46;;;;;;;6.33;3.80;;;14.90;78.80;;;17.45;58.11;102160.56;4883041;29;20252;-56
2022/10/04 01:39:18;;;;;;;6.33;3.80;;;14.80;79.10;;;17.35;58.46;102160.03;4901025;29;20204;-56
2022/10/04 01:41:53;;;;;;;6.17;3.60;;;14.80;79.20;;;17.28;58.83;102152.97;4899606;29;20273;-57
2022/10/04 01:44:28;;;;;;;6.43;4.03;;;14.70;79.60;;;17.17;59.08;102154.25;4900810;29;20175;-59
2022/10/04 01:47:02;;;;;;;4.53;3.60;;;14.60;79.80;;;17.14;59.18;102156.47;4901254;29;20210;-58
2022/10/04 01:49:35;;;;;;;5.00;3.30;;;14.60;80.10;;;17.13;59.24;102145.00;4901020;29;20250;-56
2022/10/04 01:52:13;;;;;;;8.67;3.83;;;14.50;80.10;;;17.13;59.22;102149.47;4915610;29;20226;-56
2022/10/04 01:54:47;;;;;;;6.37;3.30;;;14.50;80.60;;;17.10;59.68;102140.03;4919731;29;20182;-56
2022/10/04 01:57:20;;;;;;;7.07;3.83;;;14.50;80.90;;;17.07;59.52;102137.72;4918852;29;20202;-56
2022/10/04 01:59:56;;;;;;;8.67;3.57;;;14.50;81.00;;;17.02;59.72;102134.78;4919796;29;20183;-59
2022/10/04 02:02:35;;;;;;;6.90;3.67;;;14.50;81.20;;;17.00;60.04;102139.47;4919318;29;20221;-58
2022/10/04 02:05:09;;;;;;;8.50;4.00;;;14.50;81.30;;;17.00;60.15;102144.78;4919858;29;20634;-59
2022/10/04 02:07:40;;;;;;;6.53;4.03;;;14.40;81.20;;;17.01;60.19;102140.28;4919455;29;20178;-58
2022/10/04 02:10:17;;;;;;;8.10;3.50;;;14.40;81.40;;;16.99;60.13;102137.81;4919731;29;20209;-57
2022/10/04 02:12:49;;;;;;;4.47;3.53;;;14.40;81.40;;;17.01;60.13;102134.97;4914275;29;20223;-59
2022/10/04 02:15:21;;;;;;;5.77;3.60;;;14.40;81.60;;;16.99;60.31;102131.66;4900993;29;20195;-59
2022/10/04 02:17:49;;;;;;;6.30;3.77;;;14.40;81.60;;;17.02;59.90;102132.13;4900694;29;20198;-59
2022/10/04 02:20:20;;;;;;;8.37;3.70;;;14.40;81.60;;;17.03;60.13;102136.44;4900453;29;20259;-59
2022/10/04 02:22:58;;;;;;;6.77;3.93;;;14.40;81.70;;;17.03;59.91;102125.81;4900391;29;20219;-59
2022/10/04 02:25:26;;;;;;;7.87;4.10;;;14.40;81.90;;;17.02;60.08;102129.47;4900444;29;20195;-58
2022/10/04 02:27:55;;;;;;;9.47;3.70;;;14.40;81.90;;;17.00;60.34;102128.81;4900373;29;20198;-59
2022/10/04 02:30:23;;;;;;;8.23;3.63;;;14.40;81.90;;;16.96;60.34;102122.22;4899666;29;20567;-59
2022/10/04 02:32:59;;;;;;;5.23;3.50;;;14.30;81.90;;;16.95;60.48;102120.56;4899727;29;20231;-57
2022/10/04 02:35:34;;;;;;;5.70;4.00;;;14.30;82.00;;;16.93;60.36;102123.41;4900311;29;20215;-56
2022/10/04 02:38:16;;;;;;;6.10;3.50;;;14.40;82.90;;;16.91;60.57;102116.63;4899006;29;20191;-57
2022/10/04 02:40:56;;;;;;;7.70;3.83;;;14.30;82.10;;;16.91;60.46;102116.63;4899527;29;20551;-59
2022/10/04 02:43:33;;;;;;;4.93;3.33;;;14.30;82.00;;;16.92;60.18;102115.63;4900235;29;20207;-59
2022/10/04 02:46:10;;;;;;;7.23;3.70;;;14.30;82.00;;;16.88;60.50;102114.31;4899984;29;20231;-58
2022/10/04 02:48:46;;;;;;;8.17;3.53;;;14.30;82.10;;;16.83;60.58;102108.72;4918118;29;20624;-59
2022/10/04 02:51:25;;;;;;;5.40;3.57;;;14.30;82.20;;;16.83;60.52;102106.03;4918704;29;20253;-59
2022/10/04 02:54:03;;;;;;;5.57;3.60;;;14.20;82.10;;;16.84;60.37;102097.91;4902184;29;20219;-59
2022/10/04 02:56:35;;;;;;;7.10;3.23;;;14.20;82.20;;;16.89;60.39;102100.00;4899722;29;20195;-58
2022/10/04 02:59:04;;;;;;;5.80;4.00;;;14.20;82.10;;;16.89;60.36;102089.38;4914337;29;20638;-59
2022/10/04 03:01:51;;;;;;;9.27;3.90;;;14.20;82.30;;;16.83;60.38;102095.41;4899332;29;20246;-59
2022/10/04 03:04:24;;;;;;;6.73;3.87;;;14.20;82.20;;;16.84;60.62;102089.94;4899391;29;20270;-59
2022/10/04 03:06:54;;;;;;;6.90;3.87;;;14.20;82.20;;;16.84;60.39;102086.44;4899342;29;20191;-59
2022/10/04 03:09:23;;;;;;;7.80;4.10;;;14.20;82.30;;;16.83;60.51;102084.75;4880624;29;20252;-59
2022/10/04 03:11:58;;;;;;;7.67;3.40;;;14.20;82.30;;;16.83;60.66;102084.75;4880827;29;20298;-57
2022/10/04 03:14:28;;;;;;;4.00;3.50;;;14.20;82.30;;;16.84;60.35;102083.78;4898554;29;20223;-56
2022/10/04 03:16:59;;;;;;;6.67;3.70;;;14.20;82.30;;;16.82;60.57;102080.47;4899347;29;20274;-59
2022/10/04 03:19:31;;;;;;;7.87;4.10;;;14.10;82.30;;;16.79;60.48;102084.31;4899986;29;20222;-56
2022/10/04 03:22:03;;;;;;;5.53;4.40;;;14.20;82.50;;;16.76;60.87;102086.50;4899141;29;20194;-56
2022/10/04 03:24:36;;;;;;;7.33;4.03;;;14.20;82.50;;;16.75;60.83;102087.53;4904201;29;20247;-56
2022/10/04 03:27:13;;;;;;;6.23;3.73;;;14.10;82.50;;;16.73;60.70;102081.56;4906076;29;20216;-56
2022/10/04 03:29:42;;;;;;;4.33;3.57;;;14.10;82.50;;;16.72;60.61;102077.25;4905736;29;20605;-56
2022/10/04 03:32:14;;;;;;;4.10;3.70;;;14.10;82.70;;;16.71;60.77;102083.59;4905184;29;20243;-56
2022/10/04 03:34:52;;;;;;;9.93;4.80;;;14.10;82.70;;;16.70;61.00;102076.59;4906636;29;20203;-55
2022/10/04 03:37:20;;;;;;;6.80;3.90;;;14.00;82.80;;;16.68;61.19;102074.16;4906882;29;20199;-55
2022/10/04 03:39:51;;;;;;;7.97;4.20;;;14.10;83.00;;;16.69;60.83;102067.78;4909316;29;20210;-57
2022/10/04 03:42:24;;;;;;;5.60;3.77;;;14.10;82.90;;;16.75;60.91;102074.22;4907566;29;20219;-58
2022/10/04 03:44:58;;;;;;;7.67;3.97;;;14.10;83.00;;;16.78;60.59;102071.22;4904100;29;20194;-57
2022/10/04 03:47:31;;;;;;;7.27;4.33;;;14.10;83.00;;;16.80;60.73;102071.84;4899049;29;20728;-59
2022/10/04 03:50:11;;;;;;;8.47;3.90;;;14.10;83.00;;;16.79;60.75;102068.38;4901906;29;20499;-58
2022/10/04 03:52:47;;;;;;;11.40;5.00;;;14.10;82.90;;;16.76;60.99;102070.53;4898581;29;20233;-59
2022/10/04 03:55:18;;;;;;;7.17;4.87;;;14.20;83.00;;;16.69;60.89;102059.81;4898620;29;20179;-57
2022/10/04 03:57:47;;;;;;;8.57;4.80;;;14.10;82.90;;;16.67;61.23;102063.66;4898743;29;20206;-57
2022/10/04 04:00:17;;;;;;;9.97;4.60;;;14.10;82.90;;;16.64;61.21;102064.06;4898473;29;20206;-59
2022/10/04 04:02:51;;;;;;;7.43;3.97;;;14.10;83.00;;;16.64;61.48;102067.50;4898220;29;20215;-58
2022/10/04 04:05:24;;;;;;;9.07;4.90;;;14.10;83.00;;;16.63;61.30;102067.72;4898883;29;20223;-58
2022/10/04 04:08:05;;;;;;;5.93;4.33;;;14.10;83.20;;;16.61;61.59;102075.88;4898639;29;20724;-58
2022/10/04 04:10:38;;;;;;;6.73;4.90;;;14.10;83.30;;;16.60;61.50;102068.06;4898296;29;20203;-59
2022/10/04 04:13:22;;;;;;;6.40;4.50;;;14.00;83.30;;;16.61;61.61;102067.06;4898414;29;20219;-58
2022/10/04 04:15:52;;;;;;;6.47;5.13;;;14.00;83.40;;;16.67;61.72;102079.63;4898539;29;20206;-57
2022/10/04 04:18:23;;;;;;;7.83;3.93;;;14.10;83.50;;;16.72;61.41;102071.94;4898436;29;20227;-58
2022/10/04 04:20:58;;;;;;;9.47;5.23;;;14.10;83.50;;;16.75;61.23;102076.91;4898081;29;20195;-58
2022/10/04 04:23:31;;;;;;;7.33;4.50;;;14.10;83.50;;;16.76;61.32;102079.34;4898982;29;20314;-58
2022/10/04 04:26:15;;;;;;;11.87;5.43;;;14.10;83.40;;;16.74;61.01;102080.53;4898033;29;20188;-56
2022/10/04 04:28:49;;;;;;;7.13;5.30;;;14.10;83.40;;;16.76;61.02;102081.19;4898773;29;20243;-59
2022/10/04 04:31:22;;;;;;;6.13;4.50;;;14.10;83.30;;;16.78;61.06;102081.84;4897232;29;20705;-56
2022/10/04 04:33:59;;;;;;;8.70;5.23;;;14.10;83.20;;;16.77;61.23;102070.38;4912045;29;20231;-57
2022/10/04 04:36:29;;;;;;;9.23;6.07;;;14.10;83.20;;;16.78;61.21;102076.53;4897796;29;20257;-57
2022/10/04 04:41:54;;;;;;;8.70;5.50;;;14.10;83.10;;;16.75;61.22;102071.56;4878934;29;20207;-58
2022/10/04 04:44:23;;;;;;;9.57;6.20;;;14.10;83.10;;;16.75;61.13;102066.25;4879281;29;20327;-58
2022/10/04 04:46:52;;;;;;;11.17;5.93;;;14.10;83.10;;;16.74;61.27;102067.25;4879094;29;20251;-58
2022/10/04 04:49:20;;;;;;;7.50;5.97;;;14.10;83.20;;;16.75;61.28;102066.25;4888126;29;20614;-57
2022/10/04 04:51:51;;;;;;;10.10;5.50;;;14.10;83.40;;;16.75;60.79;102066.25;4897250;29;20303;-59
2022/10/04 04:54:22;;;;;;;8.57;5.87;;;14.10;83.10;;;16.75;61.11;102066.25;4911855;29;20213;-60
2022/10/04 04:56:53;;;;;;;10.60;6.07;;;14.10;83.20;;;16.71;61.14;102054.34;4898195;29;20590;-58
2022/10/04 04:59:26;;;;;;;8.97;5.90;;;14.10;83.30;;;16.64;61.38;102053.41;4898021;29;20194;-59
2022/10/04 05:01:53;;;;;;;7.23;5.50;;;14.10;83.20;;;16.61;61.29;102045.78;4897801;29;20192;-59
2022/10/04 05:04:22;;;;;;;8.23;5.77;;;14.10;83.30;;;16.59;61.42;102045.97;4897798;29;20706;-59
2022/10/04 05:07:02;;;;;;;11.47;5.97;;;14.10;83.30;;;16.55;61.42;102039.38;4897790;29;20195;-59
2022/10/04 05:09:32;;;;;;;8.47;6.23;;;14.00;83.40;;;16.57;61.46;102042.66;4879317;29;20267;-60
2022/10/04 05:12:14;;;;;;;10.27;6.80;;;14.00;83.40;;;16.56;61.71;102045.50;4878727;29;20184;-59
2022/10/04 05:14:50;;;;;;;11.10;6.13;;;14.00;83.60;;;16.53;61.54;102045.88;4878917;29;20211;-58
2022/10/04 05:17:23;;;;;;;11.70;6.20;;;14.00;83.60;;;16.55;61.39;102043.84;4879032;29;20630;-58
2022/10/04 05:19:54;;;;;;;9.37;6.57;;;14.00;83.70;;;16.53;61.52;102037.91;4879746;29;20587;-59
2022/10/04 05:22:25;;;;;;;7.53;5.80;;;13.90;83.70;;;16.51;61.66;102048.72;4878752;29;20276;-57
2022/10/04 05:24:58;;;;;;;8.90;7.10;;;13.90;83.60;;;16.48;61.89;102048.22;4888797;29;20207;-59
2022/10/04 05:27:34;;;;;;;9.83;6.70;;;13.90;83.80;;;16.43;61.86;102051.41;4897211;29;20195;-59
2022/10/04 05:30:12;;;;;;;10.97;6.40;;;13.90;83.80;;;16.38;62.14;102047.66;4897915;29;20214;-59
2022/10/04 05:32:56;;;;;;;11.40;6.83;;;13.90;84.00;;;16.33;62.14;102047.38;4896674;29;20219;-58
2022/10/04 05:35:27;;;;;;;8.70;6.70;;;13.90;84.00;;;16.34;62.19;102047.19;4897175;29;20506;-58
2022/10/04 05:38:04;;;;;;;11.03;7.13;;;13.80;84.10;;;16.32;62.33;102049.19;4898924;29;20207;-56
2022/10/04 05:40:45;;;;;;;11.23;7.10;;;13.80;84.20;;;16.32;62.26;102053.69;4917352;29;20206;-59
2022/10/04 05:43:34;;;;;;;7.37;6.57;;;13.80;84.30;;;16.29;62.37;102049.53;4900914;29;20206;-58
2022/10/04 05:46:24;;;;;;;11.33;6.80;;;13.80;84.20;;;16.27;62.28;102049.72;4900955;29;20184;-60
2022/10/04 05:48:55;;;;;;;11.70;7.87;;;13.80;84.30;;;16.32;62.19;102048.38;4900487;29;20203;-58
2022/10/04 05:51:27;;;;;;;11.53;6.63;;;13.80;84.30;;;16.34;62.13;102056.97;4900934;29;20191;-58
2022/10/04 05:53:59;;;;;;;10.53;7.13;;;13.80;84.30;;;16.36;61.97;102054.97;4901124;29;20664;-59
2022/10/04 05:57:20;;;;;;;11.60;7.10;;;13.80;84.40;;;16.30;62.10;102056.53;4902107;29;20183;-58
2022/10/04 06:00:08;;;;;;;11.67;7.20;;;13.80;84.40;;;16.36;62.15;102050.47;4902083;29;20210;-58
2022/10/04 06:03:30;;;;;;;14.17;7.97;;;13.80;84.50;;;16.33;62.12;102042.06;4902056;29;20266;-55
2022/10/04 06:06:10;;;;;;;9.73;7.70;;;13.80;84.50;;;16.35;61.97;102048.00;4899003;29;20207;-56
2022/10/04 06:08:52;;;;;;;16.13;8.13;;;13.80;84.30;;;16.33;61.96;102050.81;4897081;29;20565;-59
2022/10/04 06:11:39;;;;;;;13.10;7.50;;;13.80;84.30;;;16.33;61.90;102050.81;4912040;29;20579;-56
2022/10/04 06:14:47;;;;;;;11.60;7.23;;;13.70;84.20;;;16.31;62.36;102047.53;4899733;29;20718;-59
2022/10/04 06:17:51;;;;;;;14.17;7.77;;;13.80;84.40;;;16.27;61.94;102039.09;4913860;29;20206;-58
2022/10/04 06:21:08;;;;;;;16.23;7.30;;;13.70;84.20;;;16.27;62.26;102052.41;4899239;29;20712;-59
2022/10/04 06:23:47;;;;;;;18.43;7.27;;;13.70;84.30;;;16.33;62.26;102053.50;4896750;29;20298;-58
2022/10/04 06:26:23;;;;;;;14.27;8.10;;;13.80;84.30;;;16.33;61.99;102053.50;4895443;29;20209;-53
2022/10/04 06:28:59;;;;;;;20.00;7.90;;;13.70;84.30;;;16.35;62.15;102053.31;4900233;29;20222;-55
2022/10/04 06:32:13;;;;;;;15.47;8.43;;;13.70;84.30;;;16.30;62.09;102039.75;4909368;29;20286;-53
2022/10/04 06:35:33;;;;;;;14.53;8.70;;;13.80;84.40;;;16.31;62.05;102046.72;4883598;29;20240;-54
2022/10/04 06:39:00;;;;;;;9.53;7.33;;;13.80;84.20;;;16.28;61.77;102046.06;4893447;29;20211;-52
2022/10/04 06:42:10;;;;;;;10.70;7.83;;;13.80;84.10;;;16.27;61.97;102044.41;4875286;29;20554;-52
2022/10/04 06:45:26;;;;;;;15.03;8.10;;;13.80;84.00;;;16.23;61.96;102040.47;4884937;29;20937;-52
2022/10/04 06:48:21;;;;;;;11.10;8.07;;;13.80;84.00;;;16.26;62.31;102040.09;4879644;29;20214;-56
2022/10/04 06:50:54;;;;;;;14.57;8.60;;;13.80;84.00;;;16.32;61.97;102045.72;4895527;29;20581;-52
2022/10/04 06:53:39;;;;;;;13.30;8.30;;;13.80;84.00;;;16.33;61.83;102039.41;4897643;29;20250;-53
2022/10/04 06:56:43;;;;;;;9.93;8.00;;;13.80;84.00;;;16.27;61.88;102041.75;4896095;29;20237;-54
2022/10/04 06:59:39;;;;;;;16.00;8.57;;;13.80;84.00;;;16.31;62.08;102036.91;4885483;29;20218;-60
2022/10/04 07:02:16;;;;;;;8.83;7.57;;;13.80;83.90;;;16.32;61.94;102045.72;4885327;29;20223;-60
2022/10/04 07:04:52;;;;;;;14.40;7.73;;;13.80;83.90;;;16.36;61.97;102050.47;4893995;29;20218;-60
2022/10/04 07:07:39;;;;;;;10.10;6.83;;;13.80;83.80;;;16.46;61.68;102050.22;4906874;29;20195;-60
2022/10/04 07:10:31;;;;;;;13.63;7.83;;;13.90;83.90;;;16.53;61.44;102052.00;4887069;29;20230;-61
2022/10/04 07:13:33;;;;;;;15.97;7.00;;;13.90;83.90;;;16.65;61.35;102047.06;4892424;29;20646;-59
2022/10/04 07:16:31;;;;;;;10.07;7.37;;;14.00;83.70;;;16.77;60.61;102058.91;4889337;29;20223;-60
2022/10/04 07:19:23;;;;;;;12.27;7.60;;;14.10;83.50;;;16.89;60.85;102054.81;4892171;29;20230;-59
2022/10/04 07:22:13;;;;;;;11.90;6.70;;;14.20;83.10;;;16.95;60.42;102056.72;4905316;29;20291;-63
2022/10/04 07:25:02;;;;;;;12.40;7.93;;;14.30;82.60;;;17.07;59.81;102052.59;4871051;29;20213;-62
2022/10/04 07:29:19;;;;;;;12.23;7.23;;;14.40;82.50;;;17.23;59.76;102054.25;4894712;29;20218;-59
2022/10/04 07:30:54;;;;;;;12.00;6.87;;;14.50;82.30;;;17.35;59.36;102064.19;4892313;29;20234;-60
2022/10/04 07:33:36;;;;;;;8.90;6.23;;;14.60;81.50;;;17.43;59.04;102053.47;4897419;29;20329;-59
2022/10/04 07:36:10;;;;;;;10.37;6.30;;;14.70;81.10;;;17.47;58.73;102052.06;4911754;29;20199;-60
2022/10/04 07:38:49;;;;;;;6.50;5.37;;;14.80;80.60;;;17.55;58.39;102062.66;4904350;29;20596;-58
2022/10/04 07:41:27;;;;;;;9.53;6.03;;;14.90;80.50;;;17.57;58.30;102057.94;4895530;29;21488;-59
2022/10/04 07:44:05;;;;;;;10.43;6.60;;;14.90;80.10;;;17.61;58.23;102063.75;4893338;29;20278;-60
2022/10/04 07:46:57;;;;;;;9.80;6.40;;;15.00;80.00;;;17.59;57.93;102071.06;4892338;29;20245;-59
2022/10/04 07:49:28;;;;;;;7.87;6.30;;;15.00;79.90;;;17.63;58.25;102067.03;4920011;29;20271;-60
2022/10/04 07:52:25;;;;;;;10.37;6.90;;;15.00;79.80;;;17.64;58.66;102071.34;4902124;29;20316;-58
2022/10/04 07:55:06;;;;;;;11.20;6.83;;;15.00;80.00;;;17.71;58.13;102071.44;4891249;29;20225;-57
2022/10/04 07:57:49;;;;;;;10.67;5.87;;;15.10;80.00;;;17.81;58.17;102058.59;4890378;29;20255;-58
2022/10/04 08:00:41;;;;;;;9.03;5.97;;;15.10;80.10;;;17.98;58.05;102060.00;4896788;29;20199;-56
2022/10/04 08:03:48;;;;;;;8.03;5.80;;;15.20;80.40;;;18.19;57.37;102052.84;4887399;29;20220;-59
2022/10/04 08:06:47;;;;;;;;;;;;;;;;;;;;;
2022/10/04 08:10:05;;;;;;;6.97;5.37;;;15.50;79.50;;;18.51;56.49;102054.16;4884199;29;20226;-59
2022/10/04 08:13:22;;;;;;;8.53;5.57;;;15.70;79.20;;;18.69;55.84;102054.47;4907009;29;20240;-58
2022/10/04 08:16:25;;;;;;;9.80;5.30;;;15.80;78.40;;;18.84;55.56;102047.19;4908914;29;20725;-62
2022/10/04 08:19:25;;;;;;;7.90;5.20;;;16.00;77.90;;;19.03;54.78;102050.16;4872153;29;20229;-59
2022/10/04 08:22:17;;;;;;;8.53;4.97;;;16.10;77.40;;;19.20;55.13;102046.97;4874214;29;20251;-61
2022/10/04 08:25:15;;;;;;;9.60;4.93;;;16.30;77.20;;;19.33;54.18;102040.84;4910956;29;20249;-62
2022/10/04 08:31:08;;;;;;;7.10;5.50;;;16.60;75.80;;;19.89;52.76;102036.94;4920639;29;20211;-61
2022/10/04 08:34:43;;;;;;;10.10;5.10;;;16.80;74.80;;;20.61;51.83;102036.13;4901862;29;20230;-60
2022/10/04 08:37:52;;;;;;;10.17;4.73;;;17.10;74.60;;;20.92;49.22;102034.41;4912905;29;20203;-60
2022/10/04 08:41:26;;;;;;;10.80;4.73;;;17.50;71.30;;;20.92;49.23;102033.56;4900670;29;20236;-59
2022/10/04 08:44:46;;;;;;;8.37;4.83;;;17.90;70.10;;;20.90;49.12;102027.59;4875844;29;20249;-59
2022/10/04 08:48:37;;;;;;;9.97;4.73;;;18.20;69.40;;;20.85;49.41;102022.06;4906432;29;20214;-56
2022/10/04 08:51:57;;;;;;;9.17;5.10;;;18.40;68.80;;;20.91;48.82;102022.06;4895988;29;20215;-60
2022/10/04 08:55:33;;;;;;;8.67;4.60;;;18.40;67.90;;;21.02;48.92;102019.72;4899394;29;20234;-59
2022/10/04 08:58:40;;;;;;;8.60;4.63;;;18.50;67.70;;;21.50;48.31;102021.81;4876084;29;20207;-61
2022/10/04 09:01:55;;;;;;;9.17;3.90;;;18.60;68.00;;;22.29;46.78;102015.91;4881367;29;20254;-60
2022/10/04 09:05:07;;;;;;;7.27;4.20;;;18.90;67.30;;;23.30;45.98;102017.06;4897221;29;20207;-58
2022/10/04 09:08:27;;;;;;;10.53;4.13;;;19.40;68.50;;;24.68;44.18;102014.88;4890979;29;20550;-60
2022/10/04 09:11:21;;;;;;;8.40;3.77;;;20.10;66.80;;;25.34;39.63;102012.50;4889257;29;20229;-61
2022/10/04 09:14:22;;;;;;;9.63;4.13;;;20.80;60.50;;;25.51;38.56;102010.72;4890263;29;20233;-60
2022/10/04 09:17:14;;;;;;;7.87;4.07;;;21.30;58.80;;;25.89;37.77;102009.19;4891437;29;20861;-60
2022/10/04 09:20:01;;;;;;;7.40;4.00;;;21.70;57.00;;;26.86;36.18;101999.63;4894408;29;20211;-59
2022/10/04 09:23:03;;;;;;;9.73;4.07;;;22.30;55.90;;;27.60;35.77;101989.88;4894772;29;20219;-60
2022/10/04 09:25:55;;;;;;;8.40;4.13;;;22.90;55.40;;;28.46;34.75;101987.84;4892690;29;20206;-60
2022/10/04 09:29:10;;;;;;;7.63;4.13;;;23.50;54.50;;;29.38;32.06;101996.91;4889594;29;20210;-58
2022/10/04 09:32:40;;;;;;;11.03;4.70;;;24.10;51.60;;;30.07;32.46;101988.31;4894771;29;20290;-59
2022/10/04 09:35:38;;;;;;;7.40;3.77;;;24.90;50.90;;;30.83;30.61;101991.66;4855173;29;20239;-60
2022/10/04 09:38:43;;;;;;;10.23;3.50;;;25.60;48.50;;;31.58;28.07;101993.13;4893583;29;20298;-59
2022/10/04 09:41:57;;;;;;;6.70;4.10;;;26.20;46.50;;;31.56;28.06;101995.34;4894047;29;20295;-59
2022/10/04 09:45:06;;;;;;;7.90;3.87;;;26.50;44.00;;;31.51;27.10;101987.19;4849199;29;20232;-59
2022/10/04 09:47:44;;;;;;;7.03;3.80;;;26.70;42.40;;;31.59;27.84;101988.50;4897716;29;20207;-58
2022/10/04 09:51:35;;;;;;;9.80;4.00;;;26.90;42.80;;;31.90;27.90;101989.88;4900078;29;20205;-60
2022/10/04 09:54:50;;;;;;;6.83;3.70;;;27.20;44.70;;;32.43;28.31;101988.00;4854956;29;20232;-62
2022/10/04 09:57:33;;;;;;;4.43;3.37;;;27.50;43.80;;;33.29;27.24;101990.47;4862990;29;20389;-60
2022/10/04 10:00:23;;;;;;;4.37;2.70;;;27.80;42.60;;;33.75;26.51;101985.13;4896934;29;20657;-57
2022/10/04 10:04:03;;;;;;;5.37;3.23;;;28.10;41.40;;;33.61;24.58;101981.53;4911110;29;20262;-59
2022/10/04 10:07:22;;;;;;;4.30;3.33;;;28.20;37.90;;;33.11;24.32;101967.53;4838293;29;20668;-61
2022/10/04 10:13:41;;;;;;;4.43;3.07;;;28.00;37.30;;;32.66;25.20;101970.84;4886255;29;20214;-58
2022/10/04 10:16:30;;;;;;;9.47;3.90;;;27.80;37.90;;;33.02;25.08;101963.03;4892512;29;20247;-58
2022/10/04 10:19:29;;;;;;;4.60;2.95;;;27.80;38.20;;;33.32;25.00;101973.50;4889389;29;20200;-59
2022/10/04 10:22:25;;;;;;;6.33;3.77;;;27.80;38.30;;;33.43;24.94;101973.03;4894812;29;20222;-60
2022/10/04 10:25:30;;;;;;;4.23;3.27;;;28.00;38.60;;;32.79;24.59;101967.41;4903296;29;20202;-59
2022/10/04 10:28:28;;;;;;;7.77;3.13;;;27.80;37.30;;;31.38;26.25;101963.28;4895942;29;20511;-57
2022/10/04 10:31:26;;;;;;;6.80;3.20;;;27.60;37.10;;;29.92;28.28;101959.25;4901072;29;20211;-58
2022/10/04 10:34:51;;;;;;;9.40;3.83;;;27.10;37.90;;;28.39;30.35;101965.59;4898230;29;20265;-58
2022/10/04 10:37:42;;;;;;;6.27;3.77;;;26.30;39.20;;;27.52;31.58;101966.03;4909127;29;20275;-59
2022/10/04 10:40:43;;;;;;;7.77;3.80;;;25.60;40.90;;;26.65;32.58;101959.84;4899445;29;20294;-59
2022/10/04 10:43:38;;;;;;;4.67;2.93;;;24.90;42.50;;;26.33;34.04;101957.00;4895838;29;20239;-60
2022/10/04 10:46:41;;;;;;;8.90;4.10;;;24.40;44.70;;;26.01;34.62;101959.47;4886334;29;20254;-60
2022/10/04 10:49:47;;;;;;;8.53;3.97;;;23.90;45.40;;;25.73;35.13;101956.03;4898477;29;20259;-60
2022/10/04 10:53:30;;;;;;;5.67;3.60;;;23.60;45.60;;;25.21;34.81;101961.59;4902331;29;20239;-60
2022/10/04 10:56:56;;;;;;;7.77;3.30;;;23.10;45.50;;;25.14;36.44;101963.63;4869188;29;20238;-59
2022/10/04 11:00:06;;;;;;;6.17;2.83;;;22.90;47.30;;;25.55;35.15;101970.59;4893408;29;20306;-58
2022/10/04 11:03:19;;;;;;;4.00;2.63;;;22.80;47.40;;;25.83;34.46;101957.03;4910705;29;20233;-58
2022/10/04 11:06:34;;;;;;;9.30;2.53;;;22.80;46.40;;;25.98;33.74;101956.47;4895161;29;20203;-60
2022/10/04 11:09:42;;;;;;;5.27;2.50;;;22.80;46.10;;;26.09;33.03;101955.53;4895990;29;20202;-61
2022/10/04 11:12:53;;;;;;;4.30;2.70;;;22.90;46.00;;;26.31;33.61;101948.34;4887698;29;20246;-59
2022/10/04 11:16:02;;;;;;;3.20;2.63;;;23.00;46.20;;;26.24;33.29;101950.41;4891503;29;20227;-58
2022/10/04 11:19:34;;;;;;;6.90;2.67;;;23.10;45.80;;;25.62;33.82;101946.97;4878176;29;20301;-59
2022/10/04 11:23:00;;;;;;;7.13;3.17;;;23.00;45.80;;;25.26;34.49;101948.22;4891170;29;20234;-59
2022/10/04 11:26:08;;;;;;;5.33;2.93;;;22.90;46.30;;;25.14;35.34;101942.06;4853057;29;20215;-60
2022/10/04 11:28:59;;;;;;;4.90;2.60;;;22.70;46.90;;;25.09;35.53;101949.22;4834792;29;20323;-60
2022/10/04 11:32:24;;;;;;;5.00;2.97;;;22.60;46.90;;;24.94;36.13;101940.84;4898609;29;20557;-56
2022/10/04 11:35:49;;;;;;;7.77;3.40;;;22.50;47.60;;;24.83;35.74;101926.34;4868406;29;20242;-60
2022/10/04 11:38:47;;;;;;;4.83;3.03;;;22.40;47.80;;;24.84;36.57;101936.88;4894227;29;20222;-61
2022/10/04 11:41:33;;;;;;;7.93;3.70;;;22.40;48.30;;;24.92;36.68;101924.91;4895473;29;20305;-60
2022/10/04 11:44:59;;;;;;;7.47;3.50;;;22.40;48.70;;;25.19;36.32;101917.06;4893842;29;20246;-58
2022/10/04 11:47:40;;;;;;;5.63;3.65;;;22.40;49.30;;;26.14;35.44;101909.75;4878061;29;20483;-62
2022/10/04 11:50:39;;;;;;;6.03;3.30;;;22.60;49.90;;;27.27;32.87;101908.94;4897105;29;20207;-61